Time;durP1;ratioP1;P1;durP2;ratioP2;P2;SDS_P1;SDS_P2;PMS_P1;PMS_P2;Temp;Humidity;BMP_temperature;BMP_pressure;BME280_temperature;BME280_humidity;BME280_pressure;Samples;Min_cycle;Max_cycle;Signal;HPM_P1;HPM_P2
2022/03/24 00:02:06;;;;;;;24.87;18.33;;;13.40;54.20;;;;;;5053698;28;20802;-73
2022/03/24 00:04:32;;;;;;;21.07;16.50;;;13.20;54.40;;;;;;5053722;28;20294;-75
2022/03/24 00:06:58;;;;;;;20.80;16.10;;;13.30;54.60;;;;;;5055179;28;20499;-74
2022/03/24 00:09:23;;;;;;;18.80;15.50;;;13.30;54.60;;;;;;5053868;28;20438;-74
2022/03/24 00:11:49;;;;;;;25.30;15.90;;;13.50;54.20;;;;;;5055819;28;20183;-74
2022/03/24 00:14:16;;;;;;;22.97;15.33;;;13.30;54.40;;;;;;5056688;28;20664;-75
2022/03/24 00:16:42;;;;;;;24.07;17.07;;;13.10;54.90;;;;;;5050917;28;20183;-74
2022/03/24 00:19:08;;;;;;;29.87;17.57;;;13.20;54.50;;;;;;5038502;28;20825;-75
2022/03/24 00:21:33;;;;;;;22.13;15.97;;;13.20;54.70;;;;;;5053754;28;20184;-75
2022/03/24 00:23:59;;;;;;;22.00;16.00;;;13.20;54.50;;;;;;5054912;28;20223;-75
2022/03/24 00:26:25;;;;;;;17.97;14.23;;;13.20;54.70;;;;;;5052200;28;20673;-74
2022/03/24 00:28:53;;;;;;;18.57;15.17;;;13.20;54.70;;;;;;5054060;28;20206;-74
2022/03/24 00:31:19;;;;;;;22.33;14.67;;;13.20;54.50;;;;;;5037287;28;20190;-75
2022/03/24 00:33:45;;;;;;;20.30;14.40;;;13.20;54.40;;;;;;5052662;28;20517;-74
2022/03/24 00:36:11;;;;;;;18.73;13.90;;;13.20;54.30;;;;;;5056111;28;20469;-74
2022/03/24 00:38:40;;;;;;;21.53;15.30;;;13.30;54.20;;;;;;5056023;28;21086;-74
2022/03/24 00:41:06;;;;;;;16.30;14.60;;;13.10;54.30;;;;;;5054724;28;20448;-74
2022/03/24 00:43:32;;;;;;;20.77;14.43;;;13.10;54.60;;;;;;5054611;28;20500;-74
2022/03/24 00:45:58;;;;;;;20.10;15.50;;;12.80;55.00;;;;;;5052670;28;20218;-74
2022/03/24 00:48:24;;;;;;;19.20;15.87;;;12.80;54.80;;;;;;5037879;28;20422;-74
2022/03/24 00:50:50;;;;;;;21.20;15.20;;;12.80;55.00;;;;;;5051571;28;20927;-74
2022/03/24 00:53:16;;;;;;;20.40;15.20;;;12.90;55.00;;;;;;5054495;28;20910;-75
2022/03/24 00:55:43;;;;;;;19.80;14.47;;;13.00;54.90;;;;;;5041890;28;20461;-74
2022/03/24 00:58:10;;;;;;;17.90;14.40;;;12.90;54.90;;;;;;5055810;28;20209;-75
2022/03/24 01:00:38;;;;;;;22.80;14.90;;;12.80;54.90;;;;;;5046604;28;20523;-75
2022/03/24 01:03:07;;;;;;;19.37;15.33;;;12.80;55.20;;;;;;5058732;28;20898;-74
2022/03/24 01:05:37;;;;;;;18.43;14.80;;;12.70;55.80;;;;;;5059808;28;20476;-74
2022/03/24 01:08:05;;;;;;;22.17;15.40;;;12.80;55.30;;;;;;5056667;28;20437;-74
2022/03/24 01:10:31;;;;;;;20.50;16.03;;;12.70;55.60;;;;;;5055375;28;20514;-74
2022/03/24 01:12:59;;;;;;;21.40;15.17;;;12.60;55.90;;;;;;5060300;28;20444;-73
2022/03/24 01:15:26;;;;;;;19.77;15.27;;;12.60;55.90;;;;;;5058723;28;20506;-76
2022/03/24 01:17:52;;;;;;;22.43;16.20;;;12.50;55.90;;;;;;5055116;28;20524;-74
2022/03/24 01:20:19;;;;;;;23.13;15.27;;;12.50;55.70;;;;;;5060544;28;20606;-76
2022/03/24 01:22:44;;;;;;;23.10;14.50;;;12.40;55.90;;;;;;5058315;28;20202;-76
2022/03/24 01:25:10;;;;;;;18.53;13.83;;;12.40;55.90;;;;;;5059337;28;20993;-74
2022/03/24 01:27:38;;;;;;;19.30;15.03;;;12.30;56.30;;;;;;5059440;28;20198;-75
2022/03/24 01:30:06;;;;;;;23.10;15.20;;;12.20;56.30;;;;;;5057117;28;20184;-75
2022/03/24 01:32:31;;;;;;;18.60;14.23;;;12.20;56.40;;;;;;5056294;28;20452;-75
2022/03/24 01:34:57;;;;;;;19.43;13.97;;;12.30;56.30;;;;;;5058885;28;20461;-75
2022/03/24 01:37:24;;;;;;;19.30;14.97;;;12.30;56.20;;;;;;5058161;28;20241;-74
2022/03/24 01:39:50;;;;;;;20.83;14.57;;;12.10;56.40;;;;;;5059027;28;20192;-75
2022/03/24 01:42:18;;;;;;;19.10;15.03;;;12.00;56.90;;;;;;5060190;28;20533;-74
2022/03/24 01:44:46;;;;;;;17.57;14.80;;;11.90;56.90;;;;;;5058114;28;20477;-75
2022/03/24 01:47:12;;;;;;;22.53;15.70;;;11.70;57.20;;;;;;5063374;28;20480;-75
2022/03/24 01:49:40;;;;;;;21.33;15.30;;;11.90;57.00;;;;;;5059756;28;20432;-75
2022/03/24 01:52:08;;;;;;;20.07;14.50;;;12.00;56.70;;;;;;5039681;28;20452;-77
2022/03/24 01:54:36;;;;;;;21.20;16.57;;;11.80;56.60;;;;;;5056425;28;20450;-75
2022/03/24 01:57:03;;;;;;;17.23;14.20;;;11.40;57.40;;;;;;5059080;28;20441;-76
2022/03/24 01:59:29;;;;;;;21.00;14.67;;;11.60;57.70;;;;;;5057342;28;20436;-76
2022/03/24 02:01:55;;;;;;;16.63;14.60;;;11.50;57.80;;;;;;5056867;28;20442;-75
2022/03/24 02:04:21;;;;;;;18.07;15.13;;;11.80;57.50;;;;;;5062225;28;20453;-75
2022/03/24 02:06:48;;;;;;;19.63;14.47;;;11.70;57.60;;;;;;5055912;28;20473;-75
2022/03/24 02:09:15;;;;;;;24.30;15.57;;;11.70;57.90;;;;;;5056724;28;20482;-76
2022/03/24 02:11:41;;;;;;;23.60;16.00;;;11.70;57.80;;;;;;5040042;28;20866;-76
2022/03/24 02:14:08;;;;;;;21.93;15.20;;;11.70;57.80;;;;;;5055761;28;20940;-76
2022/03/24 02:16:35;;;;;;;20.27;14.50;;;11.40;58.10;;;;;;5037478;28;20896;-76
2022/03/24 02:19:16;;;;;;;15.50;13.53;;;11.50;58.70;;;;;;5058033;28;20457;-76
2022/03/24 02:21:43;;;;;;;23.47;14.70;;;11.60;58.20;;;;;;5057685;28;20464;-73
2022/03/24 02:24:10;;;;;;;19.57;14.50;;;11.80;57.80;;;;;;5058834;28;20806;-74
2022/03/24 02:26:37;;;;;;;17.37;14.10;;;11.60;57.30;;;;;;5055797;28;20494;-74
2022/03/24 02:29:07;;;;;;;23.60;14.87;;;11.60;57.70;;;;;;5056535;28;20435;-73
2022/03/24 02:32:07;;;;;;;19.03;14.90;;;11.20;58.00;;;;;;5037410;28;20519;-76
2022/03/24 02:34:37;;;;;;;22.90;14.47;;;10.90;59.20;;;;;;5043844;28;20454;-76
2022/03/24 02:37:06;;;;;;;18.53;14.13;;;11.00;59.20;;;;;;5054738;28;20429;-76
2022/03/24 02:39:32;;;;;;;18.40;14.00;;;11.00;59.00;;;;;;5056539;28;20490;-76
2022/03/24 02:41:59;;;;;;;19.07;14.27;;;11.20;58.80;;;;;;5055070;28;21017;-74
2022/03/24 02:44:27;;;;;;;21.90;14.30;;;11.10;59.20;;;;;;5056293;28;20213;-74
2022/03/24 02:46:55;;;;;;;18.83;13.87;;;11.10;59.20;;;;;;5056146;28;20429;-74
2022/03/24 02:49:26;;;;;;;17.67;13.87;;;11.00;60.20;;;;;;5053851;28;20437;-74
2022/03/24 02:51:54;;;;;;;21.13;15.10;;;11.00;60.40;;;;;;5059420;28;20437;-74
2022/03/24 02:54:20;;;;;;;23.10;16.03;;;11.30;59.40;;;;;;5056912;28;20954;-74
2022/03/24 02:56:47;;;;;;;18.83;14.67;;;11.20;59.20;;;;;;5057851;28;20429;-73
2022/03/24 02:59:13;;;;;;;18.17;14.13;;;11.10;59.80;;;;;;5057499;28;20456;-73
2022/03/24 03:01:45;;;;;;;22.57;15.43;;;10.90;60.20;;;;;;5055697;28;20840;-73
2022/03/24 03:04:12;;;;;;;18.27;15.53;;;11.10;60.10;;;;;;5058561;28;20530;-72
2022/03/24 03:06:38;;;;;;;20.40;15.43;;;11.20;59.30;;;;;;5059057;28;20485;-73
2022/03/24 03:09:05;;;;;;;19.67;14.57;;;10.90;59.30;;;;;;5057193;28;20438;-73
2022/03/24 03:11:31;;;;;;;20.93;16.10;;;11.00;59.90;;;;;;5055682;28;20625;-74
2022/03/24 03:13:58;;;;;;;18.47;14.77;;;11.20;59.40;;;;;;5055355;28;21269;-75
2022/03/24 03:16:25;;;;;;;25.63;15.43;;;10.80;59.90;;;;;;5055837;28;20784;-75
2022/03/24 03:18:51;;;;;;;16.10;14.10;;;10.70;60.70;;;;;;5041201;28;20450;-75
2022/03/24 03:21:17;;;;;;;19.60;13.67;;;10.80;60.00;;;;;;5056296;28;20928;-75
2022/03/24 03:23:44;;;;;;;19.50;13.60;;;10.80;61.20;;;;;;5057275;28;20941;-73
2022/03/24 03:26:11;;;;;;;19.90;14.87;;;11.00;59.90;;;;;;5036487;28;20473;-73
2022/03/24 03:28:37;;;;;;;17.63;14.60;;;10.90;59.70;;;;;;5056865;28;20748;-74
2022/03/24 03:31:05;;;;;;;18.70;14.77;;;11.00;59.60;;;;;;5057529;28;20437;-74
2022/03/24 03:33:32;;;;;;;18.90;14.93;;;10.80;59.60;;;;;;5040092;28;20425;-74
2022/03/24 03:35:57;;;;;;;18.17;14.00;;;10.50;60.40;;;;;;5054113;28;20480;-73
2022/03/24 03:38:24;;;;;;;17.33;15.40;;;10.20;60.50;;;;;;5055894;28;20433;-73
2022/03/24 03:40:51;;;;;;;18.10;13.87;;;10.20;61.00;;;;;;5057038;28;20179;-75
2022/03/24 03:43:17;;;;;;;17.13;13.87;;;10.00;61.80;;;;;;5054759;28;20491;-74
2022/03/24 03:45:44;;;;;;;17.57;13.97;;;10.10;61.60;;;;;;5035649;28;21023;-74
2022/03/24 03:48:10;;;;;;;23.73;14.93;;;10.20;61.40;;;;;;5056670;28;20434;-74
2022/03/24 03:50:37;;;;;;;19.67;14.40;;;10.30;61.20;;;;;;5057821;28;20446;-74
2022/03/24 03:53:03;;;;;;;23.97;15.80;;;10.10;60.90;;;;;;5054986;28;20845;-75
2022/03/24 03:55:29;;;;;;;19.27;13.57;;;10.00;62.40;;;;;;5054962;28;20497;-75
2022/03/24 03:57:55;;;;;;;23.03;14.40;;;9.90;63.30;;;;;;5056143;28;20654;-74
2022/03/24 04:03:06;;;;;;;22.37;14.53;;;9.80;63.20;;;;;;5053986;28;20440;-74
2022/03/24 04:05:33;;;;;;;20.03;14.67;;;10.00;62.30;;;;;;5054239;28;20472;-76
2022/03/24 04:08:00;;;;;;;19.77;14.93;;;10.30;61.70;;;;;;5058170;28;20249;-75
2022/03/24 04:10:27;;;;;;;16.50;13.50;;;10.20;62.00;;;;;;5053930;28;20437;-75
2022/03/24 04:12:55;;;;;;;17.87;14.00;;;10.30;61.30;;;;;;5057568;28;20444;-75
2022/03/24 04:15:24;;;;;;;18.50;13.60;;;9.70;62.90;;;;;;5055419;28;21142;-75
2022/03/24 04:17:53;;;;;;;20.80;13.30;;;9.40;65.20;;;;;;5053112;28;20445;-77
2022/03/24 04:20:22;;;;;;;16.70;12.97;;;9.70;64.50;;;;;;5055799;28;20461;-77
2022/03/24 04:22:50;;;;;;;17.07;14.53;;;9.90;63.90;;;;;;5041943;28;20595;-77
2022/03/24 04:25:22;;;;;;;20.30;14.70;;;10.10;62.50;;;;;;5055422;28;20974;-75
2022/03/24 04:27:49;;;;;;;18.40;14.47;;;10.30;61.30;;;;;;5032973;28;20441;-75
2022/03/24 04:30:16;;;;;;;23.00;14.27;;;10.30;61.80;;;;;;5040467;28;20479;-74
2022/03/24 04:32:43;;;;;;;17.90;13.03;;;10.20;61.30;;;;;;5056862;28;20419;-74
2022/03/24 04:35:10;;;;;;;19.40;14.50;;;10.10;62.10;;;;;;5061519;28;20460;-74
2022/03/24 04:37:37;;;;;;;18.13;14.10;;;10.40;61.70;;;;;;5059212;28;20422;-74
2022/03/24 04:40:05;;;;;;;18.03;13.97;;;10.20;61.50;;;;;;5064391;28;20523;-74
2022/03/24 04:42:31;;;;;;;16.17;12.30;;;10.40;61.90;;;;;;5060688;28;20441;-73
2022/03/24 04:44:57;;;;;;;19.60;13.60;;;10.50;61.30;;;;;;5059499;28;21695;-74
2022/03/24 04:47:23;;;;;;;21.33;14.80;;;10.50;61.40;;;;;;5062311;28;20440;-74
2022/03/24 04:49:49;;;;;;;20.73;14.93;;;10.30;62.30;;;;;;5062146;28;21030;-74
2022/03/24 04:52:15;;;;;;;21.03;14.13;;;10.40;63.10;;;;;;5060145;28;20429;-75
2022/03/24 04:54:40;;;;;;;15.33;13.43;;;10.40;63.20;;;;;;5063797;28;20199;-75
2022/03/24 04:57:06;;;;;;;21.30;14.03;;;10.40;63.10;;;;;;5069056;28;20201;-74
2022/03/24 04:59:32;;;;;;;19.17;13.33;;;10.20;63.70;;;;;;5047085;28;20180;-75
2022/03/24 05:01:57;;;;;;;18.60;14.30;;;10.20;64.20;;;;;;5062672;28;20191;-73
2022/03/24 05:04:23;;;;;;;21.10;14.80;;;10.00;64.20;;;;;;5063659;28;20202;-74
2022/03/24 05:06:50;;;;;;;21.10;14.80;;;10.10;64.70;;;;;;5062533;28;20203;-75
2022/03/24 05:09:15;;;;;;;20.77;13.87;;;10.10;64.90;;;;;;5063910;28;20927;-75
2022/03/24 05:11:41;;;;;;;20.90;13.50;;;9.80;66.80;;;;;;5066375;28;20433;-74
2022/03/24 05:14:08;;;;;;;17.20;13.00;;;9.90;67.20;;;;;;5066528;28;20239;-73
2022/03/24 05:16:34;;;;;;;17.10;13.60;;;9.80;68.20;;;;;;5061203;28;20187;-74
2022/03/24 05:19:00;;;;;;;18.83;16.00;;;9.60;68.30;;;;;;5067530;28;20522;-74
2022/03/24 05:21:25;;;;;;;16.80;12.80;;;9.40;68.80;;;;;;5062427;28;20501;-73
2022/03/24 05:23:51;;;;;;;21.27;14.87;;;9.40;69.60;;;;;;5061208;28;20199;-73
2022/03/24 05:26:23;;;;;;;20.40;14.00;;;9.80;68.60;;;;;;5068243;28;20218;-73
2022/03/24 05:28:49;;;;;;;18.57;14.27;;;10.00;66.90;;;;;;5062950;28;20223;-74
2022/03/24 05:31:15;;;;;;;20.60;14.73;;;10.10;66.40;;;;;;5062506;28;20445;-74
2022/03/24 05:33:40;;;;;;;18.67;14.43;;;9.90;67.60;;;;;;5059397;28;20429;-74
2022/03/24 05:36:06;;;;;;;18.40;14.57;;;9.90;67.30;;;;;;5063675;28;20818;-73
2022/03/24 05:38:32;;;;;;;20.90;14.43;;;9.70;66.90;;;;;;5064537;28;20182;-72
2022/03/24 05:40:57;;;;;;;20.10;13.73;;;9.70;67.10;;;;;;5067693;28;20188;-74
2022/03/24 05:43:24;;;;;;;25.70;15.20;;;9.80;68.00;;;;;;5064648;28;20518;-74
2022/03/24 05:45:49;;;;;;;17.03;13.97;;;9.40;67.60;;;;;;5067480;28;20195;-73
2022/03/24 05:48:16;;;;;;;19.90;13.73;;;9.20;68.80;;;;;;5062160;28;20464;-74
2022/03/24 05:50:42;;;;;;;18.70;13.60;;;9.00;69.40;;;;;;5059401;28;20171;-73
2022/03/24 05:53:08;;;;;;;19.70;13.60;;;8.70;70.10;;;;;;5062947;28;20511;-74
2022/03/24 05:55:36;;;;;;;20.67;13.60;;;9.00;70.40;;;;;;5056553;28;20511;-74
2022/03/24 05:58:02;;;;;;;18.47;13.23;;;9.20;69.40;;;;;;5059656;28;20172;-74
2022/03/24 06:00:27;;;;;;;18.03;13.60;;;9.30;68.50;;;;;;5056657;28;20506;-74
2022/03/24 06:02:56;;;;;;;17.70;13.00;;;9.30;68.30;;;;;;5055879;28;20437;-74
2022/03/24 06:05:25;;;;;;;21.73;13.10;;;9.30;68.60;;;;;;5056522;28;20238;-73
2022/03/24 06:07:51;;;;;;;20.00;13.77;;;9.50;68.10;;;;;;5055697;28;20449;-73
2022/03/24 06:10:16;;;;;;;19.30;14.33;;;9.40;68.20;;;;;;5055093;28;20413;-73
2022/03/24 06:12:42;;;;;;;22.03;15.77;;;9.60;67.70;;;;;;5052903;28;20800;-73
2022/03/24 06:15:08;;;;;;;20.30;14.70;;;9.70;67.30;;;;;;5056624;28;20248;-73
2022/03/24 06:17:34;;;;;;;15.90;13.30;;;9.80;67.00;;;;;;5052060;28;20258;-74
2022/03/24 06:20:03;;;;;;;26.10;15.57;;;9.80;67.10;;;;;;5055962;28;20426;-72
2022/03/24 06:22:29;;;;;;;18.87;14.50;;;9.90;67.20;;;;;;5058617;28;20869;-74
2022/03/24 06:24:54;;;;;;;26.00;14.27;;;9.80;68.20;;;;;;5055713;28;20463;-75
2022/03/24 06:27:20;;;;;;;24.47;14.50;;;9.70;68.60;;;;;;5054566;28;20983;-74
2022/03/24 06:29:47;;;;;;;23.17;15.83;;;9.40;69.60;;;;;;5054701;28;20230;-73
2022/03/24 06:32:13;;;;;;;21.43;14.60;;;9.40;70.10;;;;;;5056279;28;20199;-74
2022/03/24 06:34:39;;;;;;;20.20;15.93;;;9.50;70.40;;;;;;5055277;28;20454;-73
2022/03/24 06:37:05;;;;;;;29.33;18.70;;;9.50;71.20;;;;;;5053450;28;20441;-71
2022/03/24 06:39:31;;;;;;;18.17;14.83;;;9.60;71.30;;;;;;5056804;28;20193;-73
2022/03/24 06:41:56;;;;;;;18.97;15.20;;;9.70;70.70;;;;;;5055217;28;20960;-73
2022/03/24 06:44:22;;;;;;;23.53;15.53;;;9.70;70.60;;;;;;5052039;28;20673;-75
2022/03/24 06:46:48;;;;;;;27.60;15.90;;;9.80;70.60;;;;;;5055750;28;20211;-74
2022/03/24 06:49:15;;;;;;;20.53;14.77;;;9.60;71.50;;;;;;5057170;28;20184;-74
2022/03/24 06:51:40;;;;;;;19.10;14.03;;;9.80;71.30;;;;;;5057017;28;20183;-73
2022/03/24 06:54:06;;;;;;;19.30;15.07;;;9.90;71.60;;;;;;5053769;28;20439;-74
2022/03/24 06:56:31;;;;;;;20.63;15.33;;;9.80;70.70;;;;;;5054299;28;20176;-73
2022/03/24 06:58:57;;;;;;;18.73;15.57;;;9.70;72.20;;;;;;5058435;28;20366;-73
2022/03/24 07:01:23;;;;;;;27.73;17.17;;;9.90;71.00;;;;;;5056196;28;20274;-76
2022/03/24 07:03:49;;;;;;;22.10;15.57;;;9.90;71.10;;;;;;5053713;28;20205;-73
2022/03/24 07:06:14;;;;;;;23.97;15.50;;;10.00;70.00;;;;;;5058697;28;20223;-72
2022/03/24 07:08:40;;;;;;;22.97;15.03;;;9.50;73.20;;;;;;5054821;28;20254;-72
2022/03/24 07:11:06;;;;;;;19.87;17.10;;;9.50;73.80;;;;;;5058569;28;20176;-73
2022/03/24 07:13:32;;;;;;;20.33;15.07;;;9.30;74.20;;;;;;5056185;28;20240;-74
2022/03/24 07:15:58;;;;;;;21.20;15.40;;;9.10;74.80;;;;;;5056734;28;20449;-75
2022/03/24 07:18:23;;;;;;;23.50;15.50;;;9.30;75.00;;;;;;5052607;28;20185;-73
2022/03/24 07:20:50;;;;;;;23.83;16.90;;;9.70;74.10;;;;;;5053000;28;20437;-73
2022/03/24 07:23:16;;;;;;;19.20;15.40;;;9.90;73.40;;;;;;5054551;28;20191;-73
2022/03/24 07:25:42;;;;;;;25.40;16.00;;;9.80;73.10;;;;;;5056027;28;20458;-72
2022/03/24 07:28:10;;;;;;;21.77;15.57;;;9.90;73.60;;;;;;5052725;28;21048;-75
2022/03/24 07:30:36;;;;;;;31.07;16.27;;;9.90;73.40;;;;;;5053667;28;20422;-74
2022/03/24 07:33:02;;;;;;;19.00;15.70;;;10.10;72.30;;;;;;5051385;28;20444;-74
2022/03/24 07:35:34;;;;;;;22.67;15.80;;;10.40;70.60;;;;;;5058556;28;20199;-74
2022/03/24 07:38:00;;;;;;;21.23;16.40;;;10.50;70.40;;;;;;5056056;28;20936;-74
2022/03/24 07:40:26;;;;;;;24.53;16.17;;;10.50;71.00;;;;;;5052273;28;20508;-74
2022/03/24 07:42:53;;;;;;;22.80;15.37;;;10.60;70.30;;;;;;5053899;28;20433;-74
2022/03/24 07:45:24;;;;;;;26.40;16.50;;;10.40;71.00;;;;;;5042427;28;20476;-72
2022/03/24 07:48:03;;;;;;;23.97;15.43;;;10.80;70.20;;;;;;5054542;28;20437;-74
2022/03/24 07:50:29;;;;;;;24.30;16.80;;;10.90;69.40;;;;;;5035703;28;20433;-75
2022/03/24 07:53:03;;;;;;;28.20;17.67;;;10.90;69.00;;;;;;5057770;28;20954;-75
2022/03/24 07:55:30;;;;;;;21.10;16.23;;;10.90;69.70;;;;;;5055572;28;20207;-73
2022/03/24 07:57:55;;;;;;;26.40;17.47;;;11.00;69.00;;;;;;5034243;28;20448;-75
2022/03/24 08:00:22;;;;;;;22.90;17.03;;;11.10;68.90;;;;;;5055977;28;20434;-74
2022/03/24 08:02:52;;;;;;;22.17;17.23;;;11.00;68.90;;;;;;5037094;28;20183;-74
2022/03/24 08:05:18;;;;;;;26.90;16.57;;;11.30;68.10;;;;;;5055205;28;20873;-74
2022/03/24 08:07:43;;;;;;;23.37;15.37;;;11.40;67.20;;;;;;5056284;28;20430;-74
2022/03/24 08:10:09;;;;;;;21.77;16.50;;;11.30;67.10;;;;;;5058536;28;20201;-75
2022/03/24 08:12:35;;;;;;;26.20;17.30;;;11.40;66.30;;;;;;5057488;28;20179;-75
2022/03/24 08:15:01;;;;;;;21.77;16.53;;;11.50;65.90;;;;;;5056321;28;20446;-74
2022/03/24 08:17:27;;;;;;;20.00;15.90;;;11.60;65.40;;;;;;5052453;28;20233;-75
2022/03/24 08:19:52;;;;;;;25.80;15.77;;;11.70;64.60;;;;;;5057942;28;20873;-75
2022/03/24 08:22:18;;;;;;;24.50;17.13;;;11.90;63.50;;;;;;5056944;28;20256;-74
2022/03/24 08:24:43;;;;;;;20.20;15.80;;;11.90;63.20;;;;;;5055597;28;20198;-74
2022/03/24 08:27:09;;;;;;;23.03;15.07;;;12.10;62.60;;;;;;5054240;28;20228;-75
2022/03/24 08:29:35;;;;;;;20.30;15.60;;;12.00;62.40;;;;;;5056281;28;20183;-74
2022/03/24 08:32:00;;;;;;;18.90;14.73;;;12.10;61.80;;;;;;5054934;28;20238;-74
2022/03/24 08:34:26;;;;;;;23.43;16.00;;;12.20;60.70;;;;;;5051279;28;20627;-75
2022/03/24 08:36:52;;;;;;;20.17;15.37;;;12.20;59.80;;;;;;5041433;28;20225;-74
2022/03/24 08:39:17;;;;;;;17.80;13.70;;;12.40;58.80;;;;;;5054879;28;20285;-75
2022/03/24 08:41:43;;;;;;;21.63;14.37;;;12.40;58.80;;;;;;5053940;28;20252;-74
2022/03/24 08:44:10;;;;;;;27.80;16.57;;;12.60;58.80;;;;;;5053198;28;20195;-74
2022/03/24 08:46:35;;;;;;;18.33;14.07;;;12.70;59.10;;;;;;5050824;28;20207;-74
2022/03/24 08:49:01;;;;;;;22.90;14.73;;;12.70;58.90;;;;;;5033835;28;20434;-73
2022/03/24 08:51:27;;;;;;;24.50;14.63;;;12.60;59.00;;;;;;5041750;28;20179;-74
2022/03/24 08:53:53;;;;;;;19.13;13.90;;;12.60;59.00;;;;;;5053852;28;20179;-74
2022/03/24 08:56:18;;;;;;;18.27;13.83;;;12.50;58.80;;;;;;5053412;28;20460;-74
2022/03/24 08:58:44;;;;;;;20.40;14.50;;;12.70;58.90;;;;;;5053226;28;20661;-75
2022/03/24 09:01:10;;;;;;;18.20;14.10;;;12.80;58.00;;;;;;5053976;28;20178;-74
2022/03/24 09:03:37;;;;;;;23.50;14.53;;;12.90;57.80;;;;;;5055131;28;21829;-74
2022/03/24 09:06:03;;;;;;;25.07;14.57;;;12.90;57.70;;;;;;5056387;28;20207;-74
2022/03/24 09:08:28;;;;;;;20.70;15.30;;;12.90;57.50;;;;;;5052812;28;20437;-74
2022/03/24 09:10:54;;;;;;;23.80;14.97;;;12.90;57.40;;;;;;5054342;28;20187;-75
2022/03/24 09:13:20;;;;;;;22.70;15.07;;;13.00;57.60;;;;;;5055072;28;20183;-76
2022/03/24 09:15:45;;;;;;;24.50;17.40;;;13.10;57.50;;;;;;5051889;28;20318;-75
2022/03/24 09:18:12;;;;;;;28.17;16.50;;;13.20;56.40;;;;;;5057901;28;20183;-75
2022/03/24 09:20:38;;;;;;;20.73;14.77;;;13.30;55.50;;;;;;5053783;28;20186;-74
2022/03/24 09:23:03;;;;;;;22.73;16.30;;;13.20;56.10;;;;;;5055109;28;20438;-75
2022/03/24 09:25:29;;;;;;;22.73;15.60;;;13.30;55.50;;;;;;5057627;28;20238;-73
2022/03/24 09:27:55;;;;;;;29.47;17.67;;;13.50;55.60;;;;;;5052423;28;21249;-74
2022/03/24 09:30:21;;;;;;;27.50;16.93;;;13.50;55.10;;;;;;5058757;28;20187;-75
2022/03/24 09:32:47;;;;;;;22.30;16.83;;;13.50;55.00;;;;;;5054041;28;20452;-74
2022/03/24 09:35:14;;;;;;;22.90;16.33;;;13.50;55.20;;;;;;5055791;28;21083;-76
2022/03/24 09:37:41;;;;;;;22.93;15.83;;;13.40;54.80;;;;;;5053620;28;20437;-77
2022/03/24 09:40:11;;;;;;;20.50;15.33;;;13.50;55.30;;;;;;5058833;28;20881;-75
2022/03/24 09:42:38;;;;;;;20.10;14.60;;;13.70;55.70;;;;;;5039615;28;20438;-76
2022/03/24 09:45:06;;;;;;;19.77;14.70;;;13.80;55.50;;;;;;5055857;28;20477;-77
2022/03/24 09:47:32;;;;;;;23.17;16.70;;;13.90;55.60;;;;;;5056834;28;20437;-75
2022/03/24 09:49:58;;;;;;;25.03;17.37;;;14.00;55.50;;;;;;5057250;28;20919;-76
2022/03/24 09:52:25;;;;;;;24.50;17.67;;;14.20;55.70;;;;;;5051320;28;20429;-75
2022/03/24 09:54:52;;;;;;;21.00;16.97;;;14.30;55.00;;;;;;5056476;28;20872;-76
2022/03/24 09:57:18;;;;;;;24.80;17.00;;;14.20;54.80;;;;;;5058878;28;20430;-74
2022/03/24 09:59:44;;;;;;;20.37;15.20;;;14.40;55.50;;;;;;5057677;28;20445;-75
2022/03/24 10:02:10;;;;;;;25.80;15.80;;;14.40;54.10;;;;;;5037548;28;20733;-76
2022/03/24 10:04:50;;;;;;;22.50;15.00;;;14.50;54.10;;;;;;5053464;28;20453;-75
2022/03/24 10:07:18;;;;;;;22.67;16.53;;;14.70;54.40;;;;;;5053587;28;20444;-74
2022/03/24 10:09:46;;;;;;;23.73;16.97;;;14.60;54.10;;;;;;5056201;28;20433;-75
2022/03/24 10:12:30;;;;;;;21.80;16.00;;;14.70;54.50;;;;;;5062518;28;20769;-74
2022/03/24 10:15:16;;;;;;;30.10;17.43;;;14.80;54.90;;;;;;5056868;28;20484;-73
2022/03/24 10:17:50;;;;;;;27.93;18.00;;;14.90;54.60;;;;;;5058343;28;20437;-73
2022/03/24 10:20:16;;;;;;;24.20;17.97;;;15.00;54.50;;;;;;5058409;28;20440;-73
2022/03/24 10:22:59;;;;;;;22.17;17.20;;;15.10;55.60;;;;;;5058030;28;20437;-76
2022/03/24 10:25:33;;;;;;;22.27;17.10;;;15.30;55.80;;;;;;5057815;28;20325;-74
2022/03/24 10:28:17;;;;;;;24.43;17.67;;;15.30;55.10;;;;;;5058298;28;20438;-76
2022/03/24 10:30:47;;;;;;;22.63;17.60;;;15.30;57.50;;;;;;5037004;28;20801;-75
2022/03/24 10:33:34;;;;;;;23.47;17.37;;;15.30;55.50;;;;;;5053156;28;20470;-75
2022/03/24 10:36:04;;;;;;;24.23;17.40;;;15.30;55.60;;;;;;5060306;28;20483;-75
2022/03/24 10:38:34;;;;;;;27.60;17.50;;;15.30;56.60;;;;;;5045983;28;20433;-75
2022/03/24 10:41:13;;;;;;;23.37;17.20;;;15.40;60.30;;;;;;5043034;28;20636;-75
2022/03/24 10:43:39;;;;;;;23.33;16.70;;;15.40;58.80;;;;;;5054342;28;20437;-76
2022/03/24 10:46:32;;;;;;;21.20;17.10;;;15.40;56.40;;;;;;5047300;28;20473;-74
2022/03/24 10:49:13;;;;;;;25.23;18.50;;;15.50;59.30;;;;;;5058533;28;20242;-74
2022/03/24 10:51:46;;;;;;;24.53;18.90;;;15.50;55.20;;;;;;5038403;28;20436;-74
2022/03/24 10:54:15;;;;;;;22.90;17.60;;;15.50;55.20;;;;;;5055452;28;20422;-74
2022/03/24 10:57:01;;;;;;;27.00;19.20;;;15.60;62.00;;;;;;5051926;28;20431;-72
2022/03/24 10:59:30;;;;;;;27.20;18.83;;;15.70;56.40;;;;;;5053436;28;20442;-74
2022/03/24 11:01:56;;;;;;;23.47;17.80;;;15.70;57.40;;;;;;5055633;28;20430;-72
2022/03/24 11:04:21;;;;;;;26.83;18.73;;;15.70;55.40;;;;;;5043564;28;20993;-72
2022/03/24 11:06:48;;;;;;;25.03;17.77;;;15.70;54.60;;;;;;5057978;28;20759;-72
2022/03/24 11:09:21;;;;;;;24.67;17.57;;;15.80;54.40;;;;;;5061010;28;20229;-72
2022/03/24 11:11:47;;;;;;;26.00;18.43;;;16.00;59.70;;;;;;5058253;28;20915;-73
2022/03/24 11:14:14;;;;;;;33.50;20.23;;;16.00;54.30;;;;;;5055263;28;20466;-72
2022/03/24 11:16:40;;;;;;;24.80;17.97;;;16.10;53.30;;;;;;5053272;28;20171;-72
2022/03/24 11:19:15;;;;;;;20.87;16.20;;;16.10;54.00;;;;;;5059197;28;20800;-73
2022/03/24 11:21:43;;;;;;;22.53;16.50;;;16.20;55.40;;;;;;5060722;28;20424;-73
2022/03/24 11:24:09;;;;;;;30.87;18.93;;;16.40;54.70;;;;;;5054558;28;20445;-73
2022/03/24 11:26:35;;;;;;;23.37;19.03;;;16.40;53.30;;;;;;5054934;28;20491;-72
2022/03/24 11:29:02;;;;;;;25.07;18.20;;;16.50;55.30;;;;;;5054811;28;20185;-72
2022/03/24 11:31:31;;;;;;;24.37;17.80;;;16.60;51.90;;;;;;5054841;28;20426;-72
2022/03/24 11:34:00;;;;;;;26.03;19.70;;;16.60;55.70;;;;;;5052344;28;20976;-72
2022/03/24 11:36:27;;;;;;;25.63;18.60;;;16.70;51.20;;;;;;5059074;28;20434;-73
2022/03/24 11:38:56;;;;;;;32.93;19.03;;;16.80;54.40;;;;;;5057846;28;20423;-74
2022/03/24 11:41:39;;;;;;;24.57;18.10;;;16.80;52.90;;;;;;5055328;28;20456;-73
2022/03/24 11:44:12;;;;;;;32.57;20.00;;;17.00;53.40;;;;;;5056367;28;20426;-73
2022/03/24 11:46:55;;;;;;;23.23;17.43;;;17.00;49.20;;;;;;5045692;28;20532;-73
2022/03/24 11:49:31;;;;;;;24.10;19.33;;;17.00;50.90;;;;;;5059166;28;20457;-73
2022/03/24 11:51:57;;;;;;;26.30;19.80;;;17.10;54.10;;;;;;5059811;28;20439;-74
2022/03/24 11:54:30;;;;;;;30.03;19.80;;;17.20;51.80;;;;;;5056299;28;20547;-73
2022/03/24 11:57:23;;;;;;;26.30;19.20;;;17.40;51.60;;;;;;5044250;28;20188;-73
2022/03/24 11:59:50;;;;;;;23.13;18.40;;;17.60;50.40;;;;;;5059284;28;20430;-74
2022/03/24 12:02:18;;;;;;;20.50;18.33;;;17.80;50.80;;;;;;5057091;28;20417;-73
2022/03/24 12:04:57;;;;;;;26.23;19.30;;;17.90;49.20;;;;;;5039418;28;20574;-73
2022/03/24 12:07:24;;;;;;;23.97;19.30;;;18.30;49.50;;;;;;5054090;28;20422;-74
2022/03/24 12:10:01;;;;;;;27.00;19.87;;;19.00;50.70;;;;;;5058700;28;20418;-73
2022/03/24 12:12:27;;;;;;;28.17;20.47;;;19.70;47.70;;;;;;5058390;28;20421;-73
2022/03/24 12:14:54;;;;;;;31.93;19.77;;;20.50;47.10;;;;;;5053354;28;20448;-73
2022/03/24 12:17:22;;;;;;;23.60;19.10;;;21.20;47.70;;;;;;5061502;28;20429;-73
2022/03/24 12:19:50;;;;;;;22.23;19.83;;;21.90;46.90;;;;;;5058001;28;21183;-73
2022/03/24 12:22:25;;;;;;;25.33;19.37;;;22.40;44.20;;;;;;5058284;28;21053;-74
2022/03/24 12:25:00;;;;;;;23.03;18.70;;;22.40;44.80;;;;;;5059326;28;20454;-75
2022/03/24 12:27:31;;;;;;;24.13;19.17;;;22.70;43.20;;;;;;5056550;28;21011;-74
2022/03/24 12:30:14;;;;;;;22.77;17.90;;;22.70;42.20;;;;;;5058107;28;20435;-74
2022/03/24 12:32:42;;;;;;;23.10;18.30;;;23.30;42.00;;;;;;5054267;28;20430;-73
2022/03/24 12:35:08;;;;;;;26.90;18.63;;;23.70;40.20;;;;;;5054769;28;20433;-74